Time;durP1;ratioP1;P1;durP2;ratioP2;P2;SDS_P1;SDS_P2;PMS_P1;PMS_P2;Temp;Humidity;BMP_temperature;BMP_pressure;BME280_temperature;BME280_humidity;BME280_pressure;Samples;Min_cycle;Max_cycle;Signal;HPM_P1;HPM_P2
2023/04/04 00:00:27;;;;;;;12.50;0.40;;;;;;;-2.28;54.95;103091.59;5035717;28;20049;-74
2023/04/04 00:02:54;;;;;;;4.82;0.30;;;;;;;-2.30;54.91;103083.81;5032073;28;20045;-74
2023/04/04 00:05:21;;;;;;;1.33;0.40;;;;;;;-2.30;55.01;103088.06;5036445;28;20382;-73
2023/04/04 00:07:48;;;;;;;1.35;1.23;;;;;;;-2.33;55.05;103082.72;5036708;28;20501;-73
2023/04/04 00:10:17;;;;;;;4.20;0.50;;;;;;;-2.35;55.07;103080.03;5031221;28;20041;-74
2023/04/04 00:12:44;;;;;;;2.05;0.30;;;;;;;-2.37;55.14;103088.38;5033953;28;20063;-73
2023/04/04 00:15:11;;;;;;;3.22;0.50;;;;;;;-2.38;55.03;103084.06;5031444;28;20052;-76
2023/04/04 00:17:38;;;;;;;1.20;0.30;;;;;;;-2.40;54.96;103077.94;5033840;28;20527;-73
2023/04/04 00:20:06;;;;;;;1.17;0.40;;;;;;;-2.42;55.35;103071.81;5035707;28;20041;-77
2023/04/04 00:22:33;;;;;;;6.78;1.25;;;;;;;-2.44;55.38;103075.94;5032446;28;20045;-73
2023/04/04 00:25:00;;;;;;;3.60;0.25;;;;;;;-2.46;55.28;103070.69;5031869;28;20063;-73
2023/04/04 00:27:28;;;;;;;2.03;0.40;;;;;;;-2.49;55.46;103063.69;5036117;28;20044;-73
2023/04/04 00:29:55;;;;;;;0.73;0.30;;;;;;;-2.51;55.52;103062.69;5038361;28;20052;-73
2023/04/04 00:32:22;;;;;;;0.93;0.30;;;;;;;-2.51;55.42;103065.25;5036727;28;20038;-73
2023/04/04 00:34:52;;;;;;;3.78;1.27;;;;;;;-2.55;55.60;103060.69;5035154;28;20049;-74
2023/04/04 00:37:20;;;;;;;2.67;0.30;;;;;;;-2.56;55.77;103058.94;5033701;28;20799;-74
2023/04/04 00:39:47;;;;;;;2.17;0.40;;;;;;;-2.58;55.87;103060.47;5029533;28;20138;-74
2023/04/04 00:42:14;;;;;;;2.92;0.30;;;;;;;-2.58;55.34;103059.59;5031870;28;20133;-73
2023/04/04 00:44:42;;;;;;;1.15;0.30;;;;;;;-2.61;55.60;103050.03;5031974;28;20149;-74
2023/04/04 00:47:09;;;;;;;3.13;0.30;;;;;;;-2.63;55.84;103051.59;5035552;28;20497;-74
2023/04/04 00:49:36;;;;;;;2.25;0.88;;;;;;;-2.63;55.82;103053.25;5032425;28;20638;-74
2023/04/04 00:52:05;;;;;;;0.65;0.30;;;;;;;-2.63;55.77;103048.13;5036079;28;20038;-74
2023/04/04 00:54:33;;;;;;;3.05;0.40;;;;;;;-2.67;55.82;103039.38;5032271;28;20051;-74
2023/04/04 00:57:01;;;;;;;2.60;0.30;;;;;;;-2.67;55.82;103043.59;5035098;28;20052;-74
2023/04/04 00:59:29;;;;;;;2.88;0.35;;;;;;;-2.69;55.87;103040.91;5033265;28;20308;-73
2023/04/04 01:01:57;;;;;;;3.15;0.40;;;;;;;-2.70;55.89;103041.72;5037386;28;20053;-73
2023/04/04 01:04:24;;;;;;;4.65;0.30;;;;;;;-2.72;55.92;103040.69;5021912;28;20466;-73
2023/04/04 01:06:51;;;;;;;4.38;0.38;;;;;;;-2.77;56.17;103035.22;5034219;28;20053;-75
2023/04/04 01:09:18;;;;;;;2.10;0.60;;;;;;;-2.76;56.25;103037.03;5034804;28;20114;-74
2023/04/04 01:11:45;;;;;;;8.13;1.35;;;;;;;-2.78;56.34;103032.59;5030966;28;20045;-73
2023/04/04 01:14:12;;;;;;;2.80;0.50;;;;;;;-2.79;56.20;103031.69;5031985;28;20064;-74
2023/04/04 01:16:40;;;;;;;1.90;0.63;;;;;;;-2.83;56.07;103026.25;5030500;28;20048;-74
2023/04/04 01:19:13;;;;;;;1.17;0.50;;;;;;;-2.89;56.36;103013.91;5030983;28;20260;-73
2023/04/04 01:21:41;;;;;;;6.15;0.40;;;;;;;-2.85;56.52;103017.56;5033167;28;20485;-73
2023/04/04 01:24:10;;;;;;;2.70;0.35;;;;;;;-2.87;56.17;103024.25;5028187;28;20041;-74
2023/04/04 01:26:38;;;;;;;1.00;0.32;;;;;;;-2.87;56.43;103024.25;5036012;28;20076;-73
2023/04/04 01:29:05;;;;;;;4.68;0.30;;;;;;;-2.89;56.60;103025.81;5029012;28;21103;-73
2023/04/04 01:31:37;;;;;;;7.30;0.45;;;;;;;-2.90;56.41;103029.13;5029628;28;20054;-73
2023/04/04 01:34:12;;;;;;;5.22;0.40;;;;;;;-2.94;56.30;103017.78;5032798;28;20417;-73
2023/04/04 01:36:45;;;;;;;4.35;0.40;;;;;;;-2.95;56.58;103016.91;5031778;28;20171;-73
2023/04/04 01:39:22;;;;;;;1.40;0.50;;;;;;;-2.96;56.56;103020.25;5037387;28;20046;-74
2023/04/04 01:41:52;;;;;;;3.72;0.60;;;;;;;-3.00;56.53;103012.22;5032799;28;20042;-73
2023/04/04 01:44:19;;;;;;;2.88;0.40;;;;;;;-3.00;56.67;103013.13;5032470;28;20054;-73
2023/04/04 01:46:45;;;;;;;0.95;0.20;;;;;;;-3.01;56.52;103013.91;5030141;28;20061;-73
2023/04/04 01:49:12;;;;;;;5.38;0.30;;;;;;;-3.03;56.58;103005.22;5031836;28;21495;-73
2023/04/04 01:51:39;;;;;;;1.98;0.65;;;;;;;-3.04;56.61;103011.13;5035829;28;20053;-74
2023/04/04 01:54:06;;;;;;;4.78;0.30;;;;;;;-3.07;56.53;103010.03;5038111;28;20053;-73
2023/04/04 01:56:33;;;;;;;5.18;0.50;;;;;;;-3.09;56.52;103009.91;5034677;28;20485;-74
2023/04/04 01:59:02;;;;;;;3.13;0.55;;;;;;;-3.10;56.86;102999.53;5036410;28;20069;-73
2023/04/04 02:01:28;;;;;;;2.53;0.32;;;;;;;-3.13;56.65;102997.69;5029732;28;20533;-74
2023/04/04 02:03:55;;;;;;;1.48;0.30;;;;;;;-3.15;56.96;102999.22;5026093;28;20048;-74
2023/04/04 02:06:23;;;;;;;6.40;0.38;;;;;;;-3.17;57.24;102999.09;5033594;28;20049;-73
2023/04/04 02:08:50;;;;;;;8.95;0.30;;;;;;;-3.18;56.97;102996.44;5030584;28;20112;-74
2023/04/04 02:11:17;;;;;;;7.00;0.43;;;;;;;-3.20;56.76;102998.00;5030206;28;20768;-74
2023/04/04 02:13:44;;;;;;;2.63;0.30;;;;;;;-3.21;56.96;102986.00;5037015;28;20053;-73
2023/04/04 02:16:12;;;;;;;2.42;0.47;;;;;;;-3.23;57.09;102993.56;5035940;28;20053;-73
2023/04/04 02:18:39;;;;;;;0.88;0.30;;;;;;;-3.25;56.84;102989.09;5037386;28;20425;-71
2023/04/04 02:21:06;;;;;;;0.60;0.20;;;;;;;-3.27;56.93;102993.22;5028480;28;20052;-71
2023/04/04 02:23:33;;;;;;;10.93;3.78;;;;;;;-3.28;57.02;102988.88;5029181;28;20713;-71
2023/04/04 02:26:00;;;;;;;2.75;0.30;;;;;;;-3.30;57.23;102992.97;5038987;28;20449;-70
2023/04/04 02:28:29;;;;;;;4.20;0.40;;;;;;;-3.31;57.14;102992.09;5003377;28;20049;-71
2023/04/04 02:30:55;;;;;;;2.42;0.35;;;;;;;-3.32;57.32;102976.66;5034812;28;20048;-71
2023/04/04 02:33:24;;;;;;;3.53;0.75;;;;;;;-3.36;57.51;102972.97;5040110;28;20494;-71
2023/04/04 02:35:51;;;;;;;3.17;0.30;;;;;;;-3.35;57.48;102971.34;5033444;28;20416;-70
2023/04/04 02:38:18;;;;;;;1.00;0.22;;;;;;;-3.37;57.24;102985.66;5038576;28;20049;-71
2023/04/04 02:40:45;;;;;;;1.80;0.30;;;;;;;-3.38;57.62;102982.22;5035237;28;20052;-71
2023/04/04 02:43:12;;;;;;;4.13;0.30;;;;;;;-3.40;57.02;102984.63;5036762;28;20045;-71
2023/04/04 02:45:39;;;;;;;2.25;0.40;;;;;;;-3.41;57.21;102980.31;5035466;28;20051;-71
2023/04/04 02:48:06;;;;;;;0.63;0.28;;;;;;;-3.45;57.88;102973.19;5038219;28;20045;-71
2023/04/04 02:50:34;;;;;;;4.18;0.40;;;;;;;-3.49;57.78;102968.63;5038456;28;20056;-72
2023/04/04 02:53:01;;;;;;;3.65;0.25;;;;;;;-3.48;57.52;102972.97;5035077;28;20041;-71
2023/04/04 02:55:29;;;;;;;1.00;0.30;;;;;;;-3.50;57.66;102968.50;5038877;28;20053;-71
2023/04/04 02:57:56;;;;;;;1.50;0.20;;;;;;;-3.51;57.66;102970.19;5035711;28;20756;-71
2023/04/04 03:00:23;;;;;;;0.47;0.20;;;;;;;-3.56;57.43;102961.28;5040082;28;20049;-71
2023/04/04 03:02:54;;;;;;;7.72;0.40;;;;;;;-3.57;57.45;102969.72;5031187;28;20060;-70
2023/04/04 03:05:21;;;;;;;0.40;0.20;;;;;;;-3.61;57.85;102967.75;5042429;28;20064;-70
2023/04/04 03:07:54;;;;;;;2.63;0.30;;;;;;;-3.63;57.75;102967.63;5039144;28;20054;-71
2023/04/04 03:10:22;;;;;;;2.95;0.45;;;;;;;-3.65;58.16;102963.16;5039780;28;20063;-71
2023/04/04 03:12:49;;;;;;;3.15;0.30;;;;;;;-3.68;58.02;102968.94;5042622;28;20060;-70
2023/04/04 03:15:16;;;;;;;2.67;0.40;;;;;;;-3.69;58.25;102968.84;5039128;28;20049;-71
2023/04/04 03:17:43;;;;;;;3.90;0.73;;;;;;;-3.71;57.85;102965.25;5032588;28;20041;-71
2023/04/04 03:20:12;;;;;;;3.08;0.28;;;;;;;-3.72;58.34;102966.06;5042098;28;20119;-70
2023/04/04 03:22:38;;;;;;;1.70;0.40;;;;;;;-3.74;57.75;102965.91;5039954;28;20056;-71
2023/04/04 03:25:08;;;;;;;3.17;0.30;;;;;;;-3.74;58.21;102959.94;5032466;28;20489;-71
2023/04/04 03:27:35;;;;;;;1.40;0.30;;;;;;;-3.76;58.10;102959.81;5036090;28;20448;-74
2023/04/04 03:30:02;;;;;;;1.75;0.20;;;;;;;-3.80;58.35;102955.25;5035482;28;20446;-71
2023/04/04 03:32:29;;;;;;;0.93;0.20;;;;;;;-3.81;58.47;102955.13;5036871;28;20046;-71
2023/04/04 03:34:56;;;;;;;7.05;0.70;;;;;;;-3.83;58.51;102954.16;5036785;28;20056;-71
2023/04/04 03:37:23;;;;;;;0.38;0.20;;;;;;;-3.82;58.62;102955.91;5035765;28;20132;-72
2023/04/04 03:39:50;;;;;;;1.85;0.45;;;;;;;-3.83;58.03;102943.94;5038289;28;20049;-73
2023/04/04 03:42:18;;;;;;;2.78;0.40;;;;;;;-3.83;58.45;102943.94;5033100;28;20056;-73
2023/04/04 03:44:45;;;;;;;6.47;0.85;;;;;;;-3.83;58.11;102946.47;5035916;28;20045;-73
2023/04/04 03:47:12;;;;;;;4.50;0.30;;;;;;;-3.83;58.17;102949.91;5036177;28;20049;-72
2023/04/04 03:49:38;;;;;;;3.15;0.47;;;;;;;-3.83;58.12;102954.16;5032592;28;20068;-74
2023/04/04 03:52:05;;;;;;;1.33;0.20;;;;;;;-3.83;58.70;102959.25;5037034;28;20047;-71
2023/04/04 03:54:33;;;;;;;2.60;0.50;;;;;;;-3.83;58.81;102959.25;5036455;28;20128;-71
2023/04/04 03:57:00;;;;;;;4.10;0.32;;;;;;;-3.85;58.49;102957.44;5036359;28;20502;-71
2023/04/04 03:59:29;;;;;;;2.63;0.20;;;;;;;-3.85;58.79;102960.00;5035684;28;20059;-71
2023/04/04 04:01:56;;;;;;;1.05;0.30;;;;;;;-3.86;59.00;102955.69;5038340;28;20050;-71
2023/04/04 04:04:23;;;;;;;3.15;0.40;;;;;;;-3.86;58.93;102959.91;5036426;28;20501;-72
2023/04/04 04:06:50;;;;;;;1.70;0.30;;;;;;;-3.84;58.99;102953.25;5037335;28;20505;-71
2023/04/04 04:09:17;;;;;;;0.82;0.40;;;;;;;-3.87;58.68;102941.16;5036479;28;20083;-71
2023/04/04 04:11:44;;;;;;;3.53;0.32;;;;;;;-3.87;58.87;102937.69;5038679;28;20052;-71
2023/04/04 04:14:11;;;;;;;2.35;0.30;;;;;;;-3.88;59.17;102936.78;5034958;28;20051;-71
2023/04/04 04:16:41;;;;;;;3.15;0.35;;;;;;;-3.86;58.93;102940.38;5033950;28;20115;-71
2023/04/04 04:19:08;;;;;;;3.13;0.40;;;;;;;-3.87;59.16;102938.59;5034874;28;20564;-72
2023/04/04 04:21:35;;;;;;;3.15;0.30;;;;;;;-3.87;59.18;102933.50;5034673;28;20223;-71
2023/04/04 04:24:02;;;;;;;1.33;0.30;;;;;;;-3.86;59.17;102926.72;5039581;28;20053;-71
2023/04/04 04:26:28;;;;;;;1.98;0.20;;;;;;;-3.85;58.99;102924.25;5035965;28;20057;-71
2023/04/04 04:28:55;;;;;;;3.97;0.57;;;;;;;-3.85;58.77;102920.81;5030558;28;20049;-71
2023/04/04 04:31:22;;;;;;;4.70;0.30;;;;;;;-3.83;58.72;102933.72;5032364;28;20045;-71
2023/04/04 04:33:51;;;;;;;2.92;0.40;;;;;;;-3.85;59.59;102931.03;5034501;28;20387;-71
2023/04/04 04:36:17;;;;;;;0.57;0.28;;;;;;;-3.85;59.31;102929.38;5037311;28;20570;-71
2023/04/04 04:38:44;;;;;;;5.75;0.38;;;;;;;-3.81;59.32;102934.69;5033271;28;20409;-71
2023/04/04 04:41:11;;;;;;;3.47;0.25;;;;;;;-3.81;59.19;102924.47;5035010;28;20050;-71
2023/04/04 04:43:38;;;;;;;3.13;0.30;;;;;;;-3.81;59.45;102921.94;5033582;28;20581;-71
2023/04/04 04:46:07;;;;;;;2.03;0.30;;;;;;;-3.83;59.52;102909.06;5034206;28;21335;-72
2023/04/04 04:48:34;;;;;;;2.20;0.30;;;;;;;-3.76;59.44;102912.94;5031822;28;20051;-71
2023/04/04 04:51:03;;;;;;;0.75;0.35;;;;;;;-3.73;59.89;102910.63;5034625;28;20050;-72
2023/04/04 04:53:30;;;;;;;0.98;0.32;;;;;;;-3.70;59.71;102914.31;5035195;28;20052;-72
2023/04/04 04:55:57;;;;;;;5.25;0.30;;;;;;;-3.73;60.23;102906.44;5034549;28;20045;-73
2023/04/04 04:58:23;;;;;;;2.67;0.30;;;;;;;-3.62;60.28;102919.97;5035509;28;20045;-70
2023/04/04 05:00:55;;;;;;;2.90;0.50;;;;;;;-3.57;60.16;102918.66;5032641;28;20051;-71
2023/04/04 05:03:22;;;;;;;7.45;0.30;;;;;;;-3.52;60.40;102908.78;5036825;28;20464;-70
2023/04/04 05:05:49;;;;;;;0.90;0.30;;;;;;;-3.46;60.48;102915.22;5035787;28;20053;-70
2023/04/04 05:08:17;;;;;;;2.60;0.70;;;;;;;-3.39;60.37;102913.97;5034744;28;20505;-71
2023/04/04 05:10:44;;;;;;;1.42;0.30;;;;;;;-3.33;60.24;102913.53;5033260;28;20519;-71
2023/04/04 05:13:12;;;;;;;4.00;0.38;;;;;;;-3.28;60.30;102909.66;5034795;28;20037;-71
2023/04/04 05:15:39;;;;;;;7.72;0.30;;;;;;;-3.23;60.13;102906.66;5037314;28;20063;-71
2023/04/04 05:18:06;;;;;;;2.42;0.40;;;;;;;-3.19;59.87;102903.53;5034922;28;20049;-71
2023/04/04 05:20:33;;;;;;;2.65;0.22;;;;;;;-3.13;60.40;102905.66;5031108;28;20046;-70
2023/04/04 05:23:00;;;;;;;2.45;0.30;;;;;;;-3.08;60.60;102906.84;5034338;28;20064;-71
2023/04/04 05:25:28;;;;;;;3.28;0.25;;;;;;;-3.02;60.61;102909.84;5033514;28;20055;-71
2023/04/04 05:27:57;;;;;;;1.58;0.30;;;;;;;-2.97;60.34;102908.50;5033569;28;20429;-70
2023/04/04 05:30:24;;;;;;;2.22;0.30;;;;;;;-2.92;60.50;102902.84;5033787;28;20087;-71
2023/04/04 05:32:51;;;;;;;3.70;0.40;;;;;;;-2.87;60.47;102901.50;5031104;28;20458;-70
2023/04/04 05:35:18;;;;;;;7.47;0.30;;;;;;;-2.83;60.30;102906.91;5033180;28;20055;-71
2023/04/04 05:37:45;;;;;;;3.70;0.25;;;;;;;-2.78;60.58;102912.38;5033235;28;20060;-71
2023/04/04 05:40:12;;;;;;;2.58;0.30;;;;;;;-2.72;60.28;102908.56;5033066;28;20047;-72
2023/04/04 05:42:41;;;;;;;1.05;0.38;;;;;;;-2.68;60.60;102907.09;5036561;28;20054;-71
2023/04/04 05:45:09;;;;;;;8.60;0.60;;;;;;;-2.64;60.57;102903.97;5032139;28;20056;-72
2023/04/04 05:47:36;;;;;;;1.13;0.40;;;;;;;-2.62;60.42;102899.88;5035125;28;20135;-72
2023/04/04 05:50:03;;;;;;;3.95;0.30;;;;;;;-2.56;60.76;102900.28;5033858;28;20125;-72
2023/04/04 05:52:30;;;;;;;8.95;0.75;;;;;;;-2.51;60.55;102908.25;5030341;28;20056;-71
2023/04/04 05:54:57;;;;;;;4.13;0.30;;;;;;;-2.46;60.61;102893.22;5032955;28;20064;-71
2023/04/04 05:57:24;;;;;;;1.65;0.28;;;;;;;-2.41;60.88;102899.56;5034923;28;20047;-71
2023/04/04 05:59:53;;;;;;;2.83;0.30;;;;;;;-2.37;60.87;102893.84;5039634;28;20124;-71
2023/04/04 06:02:20;;;;;;;5.05;0.35;;;;;;;-2.33;60.79;102891.63;5038732;28;20041;-71
2023/04/04 06:04:47;;;;;;;4.53;0.20;;;;;;;-2.30;60.86;102893.50;5038754;28;20525;-73
2023/04/04 06:07:15;;;;;;;0.70;0.22;;;;;;;-2.23;60.90;102890.56;5037844;28;20144;-71
2023/04/04 06:09:41;;;;;;;1.92;0.20;;;;;;;-2.18;60.75;102894.31;5035141;28;20099;-70
2023/04/04 06:12:09;;;;;;;1.40;0.20;;;;;;;-2.12;60.86;102892.16;5037368;28;20044;-70
2023/04/04 06:14:36;;;;;;;0.95;0.40;;;;;;;-2.07;60.86;102895.06;5034571;28;20119;-70
2023/04/04 06:17:05;;;;;;;2.95;0.43;;;;;;;-2.03;60.90;102897.91;5038874;28;20049;-71
2023/04/04 06:19:31;;;;;;;2.47;0.20;;;;;;;-1.97;61.01;102899.09;5036271;28;20044;-71
2023/04/04 06:21:58;;;;;;;4.43;0.60;;;;;;;-1.92;61.21;102897.75;5038104;28;20049;-71
2023/04/04 06:24:26;;;;;;;2.75;0.30;;;;;;;-1.87;61.30;102893.81;5033459;28;20053;-70
2023/04/04 06:26:53;;;;;;;0.80;0.20;;;;;;;-1.81;61.06;102896.78;5035005;28;20705;-70
2023/04/04 06:29:20;;;;;;;1.58;0.20;;;;;;;-1.77;61.13;102888.50;5038845;28;20073;-70
2023/04/04 06:31:47;;;;;;;3.40;0.30;;;;;;;-1.77;61.90;102878.25;5038616;28;20486;-70
2023/04/04 06:34:15;;;;;;;1.38;0.50;;;;;;;-1.66;61.62;102890.09;5038478;28;20053;-70
2023/04/04 06:36:42;;;;;;;6.47;0.28;;;;;;;-1.61;61.61;102886.16;5034061;28;20038;-71
2023/04/04 06:39:09;;;;;;;3.95;0.20;;;;;;;-1.55;60.45;102895.91;5037084;28;20048;-70
2023/04/04 06:41:36;;;;;;;4.40;0.20;;;;;;;-1.50;61.54;102883.41;5036775;28;20469;-70
2023/04/04 06:44:03;;;;;;;7.43;0.20;;;;;;;-1.42;61.37;102883.13;5039108;28;20045;-71
2023/04/04 06:46:31;;;;;;;1.35;0.20;;;;;;;-1.37;61.25;102880.81;5038477;28;20061;-69
2023/04/04 06:48:58;;;;;;;3.65;0.55;;;;;;;-1.31;61.42;102881.25;5034864;28;20047;-72
2023/04/04 06:51:27;;;;;;;2.67;0.30;;;;;;;-1.23;61.67;102874.88;5039241;28;20037;-75
2023/04/04 06:53:55;;;;;;;5.90;0.43;;;;;;;-1.17;61.85;102875.31;5036791;28;20080;-71
2023/04/04 06:56:22;;;;;;;2.78;0.20;;;;;;;-1.09;61.17;102877.44;5036980;28;20060;-72
2023/04/04 06:58:49;;;;;;;0.95;0.10;;;;;;;-1.01;61.49;102873.69;5038279;28;20512;-73
2023/04/04 07:01:16;;;;;;;2.70;0.10;;;;;;;-0.93;60.85;102880.19;5033755;28;20044;-73
2023/04/04 07:03:44;;;;;;;4.35;0.55;;;;;;;-0.83;61.54;102881.63;5038886;28;20051;-71
2023/04/04 07:06:11;;;;;;;4.13;0.20;;;;;;;-0.73;61.24;102884.00;5039721;28;20096;-74
2023/04/04 07:08:39;;;;;;;1.45;0.20;;;;;;;-0.62;60.85;102877.84;5039934;28;20046;-74
2023/04/04 07:11:07;;;;;;;1.00;0.30;;;;;;;-0.51;60.90;102891.31;5040135;28;20049;-74
2023/04/04 07:13:34;;;;;;;0.55;0.20;;;;;;;-0.42;60.75;102889.31;5040066;28;20045;-74
2023/04/04 07:16:01;;;;;;;1.33;0.10;;;;;;;-0.33;60.74;102883.84;5040220;28;20079;-73
2023/04/04 07:18:28;;;;;;;0.50;0.20;;;;;;;-0.22;61.05;102887.94;5041142;28;20056;-75
2023/04/04 07:20:55;;;;;;;2.25;0.13;;;;;;;-0.10;60.46;102887.78;5038709;28;20049;-75
2023/04/04 07:23:21;;;;;;;3.20;0.50;;;;;;;-0.02;60.89;102878.84;5038351;28;20050;-76
2023/04/04 07:25:50;;;;;;;3.08;0.20;;;;;;;0.16;59.68;102889.28;5039438;28;20492;-76
2023/04/04 07:28:17;;;;;;;1.13;0.40;;;;;;;0.30;60.38;102883.25;5044180;28;20041;-75
2023/04/04 07:30:44;;;;;;;1.63;0.10;;;;;;;0.46;59.56;102879.88;5044098;28;20048;-73
2023/04/04 07:33:11;;;;;;;6.30;0.20;;;;;;;0.60;59.15;102889.25;5036072;28;20044;-74
2023/04/04 07:35:38;;;;;;;3.70;0.20;;;;;;;0.75;58.79;102885.78;5038474;28;20053;-73
2023/04/04 07:38:05;;;;;;;1.15;0.10;;;;;;;0.88;58.68;102876.25;5043686;28;20055;-76
2023/04/04 07:40:31;;;;;;;3.33;0.20;;;;;;;1.04;58.76;102877.94;5038146;28;20421;-75
2023/04/04 07:43:00;;;;;;;3.50;0.10;;;;;;;1.18;58.32;102880.38;5037242;28;20390;-75
2023/04/04 07:45:27;;;;;;;0.70;0.10;;;;;;;1.29;58.99;102879.28;5041045;28;20052;-76
2023/04/04 07:47:53;;;;;;;1.77;0.10;;;;;;;1.39;58.72;102876.38;5039808;28;20045;-72
2023/04/04 07:50:21;;;;;;;4.00;0.20;;;;;;;1.48;58.36;102874.31;5039763;28;20100;-73
2023/04/04 07:52:51;;;;;;;4.22;0.10;;;;;;;1.60;57.31;102880.91;5038901;28;20060;-75
2023/04/04 07:55:19;;;;;;;1.92;0.20;;;;;;;1.67;57.31;102889.00;5040516;28;20045;-75
2023/04/04 07:57:45;;;;;;;1.80;0.13;;;;;;;1.78;57.51;102886.97;5040206;28;20053;-74
2023/04/04 08:00:16;;;;;;;3.50;0.43;;;;;;;1.87;57.46;102882.28;5035535;28;20056;-74
2023/04/04 08:02:43;;;;;;;0.85;0.10;;;;;;;1.92;57.14;102877.38;5041972;28;20432;-75
2023/04/04 08:05:10;;;;;;;0.50;0.10;;;;;;;2.01;57.24;102880.41;5037076;28;20050;-75
2023/04/04 08:07:37;;;;;;;1.00;0.10;;;;;;;2.07;57.53;102885.00;5039636;28;20056;-73
2023/04/04 08:10:05;;;;;;;0.30;0.15;;;;;;;2.12;57.18;102880.97;5035919;28;20053;-73
2023/04/04 08:12:32;;;;;;;1.08;0.20;;;;;;;2.14;56.85;102881.94;5036114;28;20055;-74
2023/04/04 08:14:59;;;;;;;2.58;0.20;;;;;;;2.16;56.91;102882.88;5035577;28;20053;-73
2023/04/04 08:17:27;;;;;;;5.15;0.20;;;;;;;2.18;56.53;102883.84;5036414;28;20124;-75
2023/04/04 08:19:54;;;;;;;0.95;0.10;;;;;;;2.17;56.19;102876.94;5035113;28;20056;-73
2023/04/04 08:22:21;;;;;;;0.45;0.20;;;;;;;2.27;56.05;102888.56;5036772;28;20768;-75
2023/04/04 08:24:48;;;;;;;1.40;0.17;;;;;;;2.32;55.68;102888.00;5038117;28;20045;-83
2023/04/04 08:27:15;;;;;;;1.65;0.10;;;;;;;2.34;55.19;102876.06;5043189;28;20049;-85
2023/04/04 08:29:42;;;;;;;3.70;0.10;;;;;;;2.41;54.88;102884.97;5029975;28;20152;-79
2023/04/04 08:32:09;;;;;;;0.80;0.10;;;;;;;2.45;54.88;102887.78;5041681;28;20049;-80
2023/04/04 08:34:38;;;;;;;0.47;0.20;;;;;;;2.51;54.56;102889.78;5034298;28;20055;-79
2023/04/04 08:37:05;;;;;;;0.47;0.10;;;;;;;2.53;54.18;102885.56;5041087;28;20049;-82
2023/04/04 08:39:32;;;;;;;1.75;0.43;;;;;;;2.59;53.67;102887.56;5040347;28;20064;-80
2023/04/04 08:42:04;;;;;;;4.28;0.10;;;;;;;2.60;53.91;102881.59;5043032;28;20528;-81
2023/04/04 08:44:31;;;;;;;1.25;0.10;;;;;;;2.67;54.04;102875.91;5036393;28;20048;-79
2023/04/04 08:47:00;;;;;;;1.25;0.17;;;;;;;2.73;53.71;102877.91;5037725;28;20055;-79
2023/04/04 08:49:29;;;;;;;8.50;0.25;;;;;;;2.78;53.26;102879.88;5043093;28;20596;-79
2023/04/04 08:51:59;;;;;;;5.28;0.10;;;;;;;2.74;53.67;102877.97;5045699;28;20045;-81
2023/04/04 08:54:28;;;;;;;3.83;0.20;;;;;;;2.84;53.93;102887.91;5039030;28;20052;-80
2023/04/04 08:56:56;;;;;;;2.35;0.17;;;;;;;2.88;53.81;102871.78;5034835;28;20056;-80
2023/04/04 08:59:23;;;;;;;0.73;0.10;;;;;;;2.89;53.51;102873.53;5043332;28;20072;-79
2023/04/04 09:01:57;;;;;;;1.13;0.20;;;;;;;2.91;53.27;102871.03;5038293;28;20055;-79
2023/04/04 09:04:25;;;;;;;0.88;0.10;;;;;;;2.90;52.78;102865.00;5040553;28;20045;-76
2023/04/04 09:06:51;;;;;;;0.95;0.20;;;;;;;2.96;52.84;102873.81;5036983;28;20045;-78
2023/04/04 09:09:21;;;;;;;0.55;0.10;;;;;;;2.97;52.41;102870.44;5038214;28;20048;-75
2023/04/04 09:11:50;;;;;;;2.63;0.35;;;;;;;3.00;52.56;102875.72;5038224;28;20053;-80
2023/04/04 09:14:18;;;;;;;0.45;0.10;;;;;;;3.04;51.97;102872.47;5040880;28;20056;-80
2023/04/04 09:16:45;;;;;;;1.85;0.10;;;;;;;3.06;51.90;102861.41;5037178;28;20056;-80
2023/04/04 09:19:12;;;;;;;0.43;0.08;;;;;;;3.10;50.41;102870.16;5040342;28;20535;-79
2023/04/04 09:21:38;;;;;;;0.40;0.05;;;;;;;3.14;49.68;102869.50;5041740;28;20049;-82
2023/04/04 09:24:06;;;;;;;1.70;0.10;;;;;;;3.17;49.47;102876.50;5048909;28;20908;-78
2023/04/04 09:26:48;;;;;;;0.17;0.00;;;;;;;3.19;49.69;102869.69;5036247;28;20277;-80
2023/04/04 09:29:18;;;;;;;1.00;0.10;;;;;;;3.19;49.30;102861.94;5039072;28;20387;-81
2023/04/04 09:31:45;;;;;;;2.55;0.10;;;;;;;3.23;48.46;102874.19;5046066;28;20418;-79
2023/04/04 09:34:13;;;;;;;0.80;0.05;;;;;;;3.25;47.98;102868.28;5045999;28;20131;-80
2023/04/04 09:36:41;;;;;;;1.10;0.10;;;;;;;3.28;48.40;102863.25;5044020;28;20050;-80
2023/04/04 09:39:08;;;;;;;2.40;0.10;;;;;;;3.31;48.51;102857.34;5039913;28;20045;-80
2023/04/04 09:41:38;;;;;;;0.20;0.10;;;;;;;3.35;48.97;102857.53;5039611;28;20045;-82
2023/04/04 09:44:08;;;;;;;0.38;0.08;;;;;;;3.40;48.65;102857.75;5035210;28;20390;-80
2023/04/04 09:46:36;;;;;;;1.48;0.10;;;;;;;3.44;49.04;102856.19;5032406;28;20045;-81
2023/04/04 09:49:03;;;;;;;4.75;0.10;;;;;;;3.47;49.31;102866.66;5044231;28;20041;-81
2023/04/04 09:51:35;;;;;;;1.50;0.10;;;;;;;3.49;48.91;102863.31;5043295;28;20060;-80
2023/04/04 09:54:02;;;;;;;0.43;0.00;;;;;;;3.47;47.24;102862.41;5043607;28;20460;-81
2023/04/04 09:56:29;;;;;;;3.03;0.10;;;;;;;3.54;47.95;102866.13;5035792;28;20048;-83
2023/04/04 09:58:56;;;;;;;1.42;0.20;;;;;;;3.49;48.07;102854.69;5040654;28;20425;-80
2023/04/04 10:01:26;;;;;;;1.83;0.10;;;;;;;3.60;47.02;102858.63;5043077;28;20051;-82
2023/04/04 10:03:54;;;;;;;1.15;0.10;;;;;;;3.59;47.48;102852.59;5038492;28;20044;-81
2023/04/04 10:06:21;;;;;;;2.40;0.60;;;;;;;3.66;47.66;102856.31;5045255;28;20045;-79
2023/04/04 10:08:49;;;;;;;0.10;0.10;;;;;;;3.70;48.04;102858.22;5038325;28;20046;-80
2023/04/04 10:11:29;;;;;;;0.77;0.10;;;;;;;3.73;47.26;102855.78;5039904;28;20053;-80
2023/04/04 10:13:57;;;;;;;0.40;0.10;;;;;;;3.78;47.30;102862.00;5045024;28;20045;-80
2023/04/04 10:16:26;;;;;;;0.40;0.20;;;;;;;3.82;47.87;102860.44;5044922;28;20064;-80
2023/04/04 10:18:53;;;;;;;2.05;0.10;;;;;;;3.85;47.81;102846.78;5043334;28;20055;-80
2023/04/04 10:21:22;;;;;;;0.20;0.10;;;;;;;3.80;47.04;102834.53;5036081;28;20128;-79
2023/04/04 10:23:49;;;;;;;1.15;0.10;;;;;;;3.88;46.20;102857.25;5039534;28;20052;-79
2023/04/04 10:26:16;;;;;;;0.30;0.10;;;;;;;3.89;45.47;102853.81;5040602;28;20112;-80
2023/04/04 10:28:44;;;;;;;1.20;0.15;;;;;;;3.89;46.12;102852.13;5034680;28;20049;-80
2023/04/04 10:31:20;;;;;;;9.35;0.20;;;;;;;3.90;45.41;102850.41;5040179;28;20037;-80
2023/04/04 10:33:54;;;;;;;1.20;0.10;;;;;;;3.88;45.80;102844.31;5035296;28;20060;-77
2023/04/04 10:36:23;;;;;;;3.13;0.10;;;;;;;3.92;45.89;102853.97;5036747;28;20060;-77
2023/04/04 10:38:58;;;;;;;2.53;0.10;;;;;;;3.93;45.68;102846.28;5042729;28;20045;-77
2023/04/04 10:41:27;;;;;;;;;;;;;;;3.96;46.45;102843.81;5033171;28;20045;-77
2023/04/04 10:44:00;;;;;;;4.03;0.10;;;;;;;3.98;46.31;102836.97;5044981;28;20291;-76
2023/04/04 10:46:31;;;;;;;15.65;0.47;;;;;;;4.01;46.22;102834.56;5040366;28;20107;-77
2023/04/04 10:49:01;;;;;;;0.40;0.10;;;;;;;4.05;45.81;102836.44;5041127;28;20049;-77
2023/04/04 10:51:31;;;;;;;3.35;0.10;;;;;;;4.08;45.87;102840.84;5044155;28;20520;-78
2023/04/04 10:53:58;;;;;;;4.38;0.20;;;;;;;4.10;45.62;102841.81;5043574;28;20048;-77
2023/04/04 10:56:26;;;;;;;0.73;0.10;;;;;;;4.10;45.60;102834.06;5044293;28;20498;-78
2023/04/04 10:59:09;;;;;;;2.88;0.30;;;;;;;4.13;45.86;102828.13;5045549;28;20061;-83
2023/04/04 11:01:56;;;;;;;1.52;0.30;;;;;;;4.10;45.86;102821.13;5040679;28;20095;-83
2023/04/04 11:04:32;;;;;;;1.42;0.10;;;;;;;4.17;45.64;102827.41;5039274;28;20607;-82
2023/04/04 11:07:10;;;;;;;9.52;1.17;;;;;;;4.19;45.04;102826.66;5043946;28;20049;-79
2023/04/04 11:09:51;;;;;;;0.40;0.10;;;;;;;4.19;45.59;102826.66;5042848;28;20053;-79
2023/04/04 11:12:22;;;;;;;1.00;0.10;;;;;;;4.16;44.76;102817.91;5052769;28;20041;-80
2023/04/04 11:15:08;;;;;;;0.88;0.15;;;;;;;4.25;44.71;102826.03;5040865;28;20049;-81
2023/04/04 11:17:51;;;;;;;1.08;0.68;;;;;;;4.22;44.50;102811.25;5045277;28;20084;-80
2023/04/04 11:20:22;;;;;;;3.60;0.20;;;;;;;4.19;44.30;102799.91;5042649;28;20103;-78
2023/04/04 11:22:50;;;;;;;2.08;0.10;;;;;;;4.26;44.90;102805.38;5040614;28;20553;-80
2023/04/04 11:25:31;;;;;;;2.47;0.30;;;;;;;4.33;44.59;102809.09;5042308;28;20052;-81
2023/04/04 11:27:59;;;;;;;0.65;0.10;;;;;;;4.34;44.58;102809.97;5042517;28;20055;-80
2023/04/04 11:30:27;;;;;;;0.40;0.10;;;;;;;4.35;44.14;102811.75;5041627;28;20037;-84
2023/04/04 11:32:57;;;;;;;4.35;0.10;;;;;;;4.37;44.05;102807.53;5047575;28;20059;-81